createdAt,value
2022-12-07T00:00:29.871Z,0.90
2022-12-07T00:03:31.751Z,0.92
2022-12-07T00:06:35.381Z,0.91
2022-12-07T00:09:37.189Z,0.97
2022-12-07T00:12:39.070Z,0.94
2022-12-07T00:15:40.944Z,1.06
2022-12-07T00:18:43.746Z,1.32
2022-12-07T00:21:45.644Z,1.53
2022-12-07T00:24:47.567Z,1.63
2022-12-07T00:27:49.392Z,1.65
2022-12-07T00:30:51.986Z,1.80
2022-12-07T00:33:54.157Z,1.83
2022-12-07T00:36:56.056Z,1.91
2022-12-07T00:39:58.016Z,1.91
2022-12-07T00:43:00.160Z,1.87
2022-12-07T00:46:02.183Z,1.73
2022-12-07T00:49:04.219Z,1.59
2022-12-07T00:52:06.133Z,1.45
2022-12-07T00:55:08.537Z,0.89
2022-12-07T00:58:10.520Z,0.36
2022-12-07T01:01:12.690Z,0.18
2022-12-07T01:04:14.827Z,0.24
2022-12-07T01:07:16.779Z,0.20
2022-12-07T01:10:18.919Z,0.23
2022-12-07T01:13:20.775Z,0.38
2022-12-07T01:16:24.700Z,0.34
2022-12-07T01:19:26.647Z,0.03
2022-12-07T01:22:28.556Z,0.08
2022-12-07T01:25:30.513Z,0.18
2022-12-07T01:28:32.556Z,0.31
2022-12-07T01:31:34.959Z,0.52
2022-12-07T01:34:36.824Z,0.56
2022-12-07T01:37:39.842Z,0.59
2022-12-07T01:40:41.749Z,0.64
2022-12-07T01:44:11.340Z,0.62
2022-12-07T01:47:13.255Z,0.56
2022-12-07T01:50:15.634Z,0.37
2022-12-07T01:53:18.825Z,0.08
2022-12-07T01:56:25.175Z,-0.07
2022-12-07T01:59:27.684Z,-0.04
2022-12-07T02:02:42.486Z,0.09
2022-12-07T02:05:50.125Z,0.03
2022-12-07T02:08:54.451Z,0.10
2022-12-07T02:11:56.948Z,0.05
2022-12-07T02:14:58.848Z,0.09
2022-12-07T02:18:10.768Z,0.02
2022-12-07T02:21:44.929Z,-0.14
2022-12-07T02:25:09.584Z,-0.26
2022-12-07T02:28:14.475Z,-0.06
2022-12-07T02:31:21.738Z,-0.03
2022-12-07T02:34:33.255Z,0.04
2022-12-07T02:37:58.189Z,-0.03
2022-12-07T02:41:21.683Z,0.03
2022-12-07T02:44:27.372Z,0.19
2022-12-07T02:47:32.808Z,0.32
2022-12-07T02:50:34.722Z,0.12
2022-12-07T02:53:44.367Z,0.06
2022-12-07T02:57:04.676Z,0.11
2022-12-07T03:00:16.961Z,0.18
2022-12-07T03:03:19.556Z,0.18
2022-12-07T03:06:28.758Z,0.19
2022-12-07T03:09:38.937Z,0.03
2022-12-07T03:13:15.478Z,0.25
2022-12-07T03:16:26.383Z,0.45
2022-12-07T03:19:29.044Z,0.32
2022-12-07T03:22:35.228Z,0.20
2022-12-07T03:25:46.363Z,0.46
2022-12-07T03:28:53.690Z,0.54
2022-12-07T03:32:12.899Z,0.68
2022-12-07T03:35:32.904Z,0.93
2022-12-07T03:38:52.152Z,0.95
2022-12-07T03:41:55.409Z,0.99
2022-12-07T03:44:58.049Z,0.94
2022-12-07T03:48:23.526Z,0.95
2022-12-07T03:51:40.312Z,0.80
2022-12-07T03:54:44.143Z,0.64
2022-12-07T03:57:50.692Z,0.52
2022-12-07T04:00:53.072Z,0.45
2022-12-07T04:03:54.951Z,0.11
2022-12-07T04:06:56.771Z,0.13
2022-12-07T04:09:58.961Z,0.05
2022-12-07T04:13:00.977Z,0.17
2022-12-07T04:16:02.893Z,0.13
2022-12-07T04:19:05.084Z,0.13
2022-12-07T04:22:07.760Z,0.04
2022-12-07T04:25:09.870Z,-0.04
2022-12-07T04:28:11.708Z,-0.05
2022-12-07T04:31:13.592Z,0.07
2022-12-07T04:34:16.543Z,0.18
2022-12-07T04:37:18.528Z,0.24
2022-12-07T04:40:21.070Z,0.27
2022-12-07T04:43:22.924Z,0.24
2022-12-07T04:46:26.994Z,0.28
2022-12-07T04:49:29.201Z,0.18
2022-12-07T04:52:37.225Z,0.23
2022-12-07T04:55:39.116Z,0.14
2022-12-07T04:58:41.036Z,0.20
2022-12-07T05:01:43.325Z,0.31
2022-12-07T05:04:45.236Z,0.35
2022-12-07T05:07:47.158Z,0.43
2022-12-07T05:10:50.250Z,0.27
2022-12-07T05:13:52.103Z,0.44
2022-12-07T05:16:54.610Z,0.31
2022-12-07T05:19:56.525Z,0.43
2022-12-07T05:22:59.616Z,0.53
2022-12-07T05:26:01.491Z,0.49
2022-12-07T05:29:04.623Z,0.56
2022-12-07T05:32:06.638Z,0.43
2022-12-07T05:35:09.071Z,0.46
2022-12-07T05:38:10.870Z,0.38
2022-12-07T05:41:36.694Z,0.48
2022-12-07T05:44:42.779Z,0.52
2022-12-07T05:47:44.689Z,0.55
2022-12-07T05:50:49.689Z,0.59
2022-12-07T05:53:51.673Z,0.63
2022-12-07T05:56:53.577Z,0.60
2022-12-07T05:59:55.437Z,0.61
2022-12-07T06:02:57.519Z,0.43
2022-12-07T06:05:59.587Z,0.54
2022-12-07T06:09:01.498Z,0.59
2022-12-07T06:12:22.303Z,0.59
2022-12-07T06:15:24.217Z,0.48
2022-12-07T06:18:26.065Z,0.69
2022-12-07T06:21:28.044Z,0.77
2022-12-07T06:24:29.911Z,0.82
2022-12-07T06:27:33.735Z,0.85
2022-12-07T06:30:35.616Z,0.90
2022-12-07T06:33:37.625Z,0.91
2022-12-07T06:36:39.572Z,1.00
2022-12-07T06:39:41.463Z,0.79
2022-12-07T06:42:43.315Z,0.99
2022-12-07T07:37:56.964Z,1.24
2022-12-07T07:40:58.886Z,1.23
2022-12-07T07:44:00.833Z,1.26
2022-12-07T07:47:03.210Z,1.31
2022-12-07T07:50:06.000Z,1.34
2022-12-07T07:53:08.020Z,1.27
2022-12-07T07:56:09.945Z,1.36
2022-12-07T07:59:12.126Z,1.49
2022-12-07T08:02:18.956Z,1.65
2022-12-07T08:05:21.267Z,1.91
2022-12-07T08:08:23.455Z,1.95
2022-12-07T08:11:25.550Z,2.09
2022-12-07T08:14:28.584Z,2.24
2022-12-07T08:17:30.448Z,2.35
2022-12-07T08:20:33.868Z,2.39
2022-12-07T08:23:39.916Z,2.45
2022-12-07T08:26:42.719Z,2.52
2022-12-07T08:29:44.716Z,2.71
2022-12-07T08:32:47.479Z,2.75
2022-12-07T08:35:49.336Z,2.67
2022-12-07T08:39:29.365Z,2.77
2022-12-07T08:42:13.268Z,2.80
2022-12-07T08:45:17.424Z,2.93
2022-12-07T08:48:25.353Z,3.05
2022-12-07T08:51:27.669Z,3.16
2022-12-07T08:54:29.838Z,3.04
2022-12-07T08:57:35.081Z,3.01
2022-12-07T09:00:37.337Z,2.62
2022-12-07T09:03:39.570Z,2.48
2022-12-07T09:06:42.351Z,2.49
2022-12-07T09:09:44.528Z,2.00
2022-12-07T09:12:46.495Z,1.99
2022-12-07T09:15:48.549Z,2.17
2022-12-07T09:18:50.523Z,2.18
2022-12-07T09:21:53.932Z,2.36
2022-12-07T09:24:55.782Z,2.43
2022-12-07T09:27:58.722Z,2.50
2022-12-07T09:31:22.609Z,2.78
2022-12-07T09:34:22.847Z,3.11
2022-12-07T09:37:24.835Z,3.32
2022-12-07T09:40:26.697Z,3.32
2022-12-07T09:43:28.947Z,3.42
2022-12-07T09:46:36.406Z,3.59
2022-12-07T09:49:38.521Z,3.22
2022-12-07T09:52:42.195Z,3.15
2022-12-07T09:55:44.607Z,3.01
2022-12-07T09:58:47.417Z,2.89
2022-12-07T10:01:51.290Z,3.14
2022-12-07T10:04:53.364Z,3.08
2022-12-07T10:07:55.465Z,3.24
2022-12-07T10:10:58.517Z,3.51
2022-12-07T10:14:13.313Z,3.51
2022-12-07T10:17:41.086Z,3.76
2022-12-07T10:20:43.140Z,3.80
2022-12-07T10:24:03.850Z,4.09
2022-12-07T10:27:06.580Z,4.31
2022-12-07T10:30:15.028Z,4.65
2022-12-07T10:33:38.701Z,4.84
2022-12-07T10:36:40.652Z,5.07
2022-12-07T10:39:46.783Z,5.14
2022-12-07T10:43:02.398Z,5.25
2022-12-07T10:46:16.253Z,5.45
2022-12-07T10:49:39.000Z,5.66
2022-12-07T10:52:53.565Z,5.83
2022-12-07T10:56:16.359Z,5.72
2022-12-07T10:59:31.688Z,5.80
2022-12-07T11:02:50.447Z,5.70
2022-12-07T11:06:22.183Z,5.56
2022-12-07T11:10:08.558Z,5.61
2022-12-07T11:28:50.256Z,5.68
2022-12-07T11:31:57.494Z,5.78
2022-12-07T11:35:06.092Z,5.72
2022-12-07T11:38:28.172Z,5.80
2022-12-07T11:41:37.920Z,5.88
2022-12-07T11:45:15.998Z,5.73
2022-12-07T11:48:29.879Z,5.71
2022-12-07T11:51:36.604Z,5.72
2022-12-07T11:54:44.561Z,5.73
2022-12-07T11:57:54.237Z,5.68
2022-12-07T12:01:14.699Z,5.65
2022-12-07T12:04:46.540Z,5.68
2022-12-07T13:07:14.168Z,5.52
2022-12-07T13:10:25.491Z,5.55
2022-12-07T13:13:33.570Z,5.51
2022-12-07T13:16:40.918Z,5.46
2022-12-07T13:19:42.872Z,5.46
2022-12-07T13:22:49.836Z,5.37
2022-12-07T13:26:17.992Z,5.44
2022-12-07T13:29:21.692Z,5.37
2022-12-07T13:32:27.017Z,5.34
2022-12-07T13:35:38.795Z,5.37
2022-12-07T13:38:50.868Z,5.35
2022-12-07T13:41:58.172Z,5.33
2022-12-07T13:45:15.793Z,5.33
2022-12-07T13:48:49.557Z,5.29
2022-12-07T13:51:52.840Z,5.21
2022-12-07T13:54:59.126Z,5.18
2022-12-07T13:58:01.315Z,5.06
2022-12-07T14:01:03.528Z,4.92
2022-12-07T14:04:40.989Z,4.61
2022-12-07T14:07:57.261Z,4.49
2022-12-07T14:11:00.308Z,4.50
2022-12-07T14:14:04.560Z,4.34
2022-12-07T14:17:23.675Z,4.10
2022-12-07T14:20:37.751Z,4.00
2022-12-07T14:23:40.929Z,3.89
2022-12-07T14:26:46.043Z,3.72
2022-12-07T14:29:48.574Z,3.64
2022-12-07T14:32:55.662Z,3.68
2022-12-07T14:35:59.115Z,3.52
2022-12-07T14:39:01.493Z,3.56
2022-12-07T14:42:03.448Z,3.54
2022-12-07T14:45:07.048Z,3.43
2022-12-07T14:55:00.904Z,3.15
2022-12-07T14:58:03.778Z,3.07
2022-12-07T15:01:05.814Z,3.08
2022-12-07T16:03:15.742Z,2.93
2022-12-07T16:06:18.570Z,3.09
2022-12-07T16:09:20.599Z,3.02
2022-12-07T16:12:22.505Z,3.03
2022-12-07T16:15:25.574Z,3.12
2022-12-07T16:18:27.480Z,3.18
2022-12-07T16:21:29.549Z,3.10
2022-12-07T16:24:32.389Z,3.03
2022-12-07T16:27:35.317Z,3.09
2022-12-07T16:30:37.870Z,3.11
2022-12-07T16:33:41.569Z,3.29
2022-12-07T16:40:06.108Z,3.40
2022-12-07T16:43:08.395Z,3.51
2022-12-07T16:46:10.874Z,3.52
2022-12-07T16:49:14.869Z,3.49
2022-12-07T16:52:20.960Z,3.41
2022-12-07T16:55:23.204Z,3.40
2022-12-07T16:58:25.057Z,3.34
2022-12-07T17:01:29.203Z,3.21
2022-12-07T17:04:31.284Z,3.12
2022-12-07T17:07:33.215Z,2.99
2022-12-07T17:10:37.998Z,2.97
2022-12-07T17:13:58.562Z,2.90
2022-12-07T17:17:03.580Z,2.90
2022-12-07T17:20:06.158Z,2.71
2022-12-07T17:23:08.103Z,2.51
2022-12-07T17:26:24.429Z,2.36
2022-12-07T17:29:26.761Z,2.25
2022-12-07T17:32:28.829Z,2.14
2022-12-07T17:35:30.790Z,2.01
2022-12-07T17:38:32.740Z,1.94
2022-12-07T17:41:53.365Z,1.89
2022-12-07T17:44:55.283Z,1.89
2022-12-07T17:47:57.490Z,1.85
2022-12-07T17:51:21.465Z,1.85
2022-12-07T17:54:23.639Z,1.71
2022-12-07T17:57:25.589Z,1.50
2022-12-07T18:00:27.600Z,1.29
2022-12-07T19:57:36.057Z,0.54
2022-12-07T20:00:38.268Z,0.63
2022-12-07T20:03:40.817Z,0.91
2022-12-07T20:06:43.888Z,0.97
2022-12-07T20:09:46.320Z,1.09
2022-12-07T20:13:07.192Z,1.19
2022-12-07T20:16:19.251Z,1.10
2022-12-07T20:19:22.418Z,0.85
2022-12-07T20:22:24.655Z,0.74
2022-12-07T20:25:27.396Z,0.57
2022-12-07T20:28:29.975Z,0.49
2022-12-07T20:31:32.093Z,0.38
2022-12-07T20:34:34.037Z,0.15
2022-12-07T20:37:36.164Z,0.22
2022-12-07T20:40:46.079Z,0.23
2022-12-07T20:43:48.195Z,0.32
2022-12-07T20:46:50.456Z,0.31
2022-12-07T20:49:52.465Z,0.53
2022-12-07T20:53:00.218Z,0.68
2022-12-07T20:56:02.500Z,0.68
2022-12-07T20:59:07.192Z,0.60
2022-12-07T21:02:13.460Z,0.41
2022-12-07T21:05:15.539Z,0.27
2022-12-07T21:08:17.411Z,-0.08
2022-12-07T21:11:20.862Z,-0.18
2022-12-07T21:14:23.591Z,-0.18
2022-12-07T21:17:26.350Z,-0.30
2022-12-07T21:20:28.456Z,-0.39
2022-12-07T21:23:30.321Z,-0.27
2022-12-07T21:26:34.531Z,-0.29
2022-12-07T21:29:43.587Z,-0.16
2022-12-07T21:32:45.976Z,-0.04
2022-12-07T21:35:47.869Z,-0.06
2022-12-07T21:38:50.536Z,-0.19
2022-12-07T21:41:52.402Z,-0.24
2022-12-07T21:44:54.345Z,-0.27
2022-12-07T21:47:56.210Z,-0.27
2022-12-07T21:51:04.773Z,-0.23
2022-12-07T21:54:07.428Z,-0.21
